createdAt,value
2023-11-26T00:00:02.086Z,27.80
2023-11-26T00:05:05.501Z,21.65
2023-11-26T00:10:10.560Z,19.77
2023-11-26T00:15:15.871Z,15.85
2023-11-26T00:20:18.806Z,21.08
2023-11-26T00:25:21.795Z,33.15
2023-11-26T00:30:26.125Z,21.85
2023-11-26T00:35:31.087Z,16.45
2023-11-26T00:40:34.014Z,20.63
2023-11-26T00:45:38.700Z,23.08
2023-11-26T00:50:41.602Z,18.40
2023-11-26T00:55:45.392Z,17.25
2023-11-26T01:00:50.195Z,14.85
2023-11-26T01:05:54.234Z,17.20
2023-11-26T01:10:57.159Z,14.98
2023-11-26T01:16:01.533Z,24.40
2023-11-26T01:21:06.099Z,21.30
2023-11-26T01:26:09.151Z,23.23
2023-11-26T01:31:13.472Z,24.17
2023-11-26T01:36:16.441Z,17.33
2023-11-26T01:41:19.647Z,18.67
2023-11-26T01:46:25.159Z,16.52
2023-11-26T01:51:32.057Z,15.60
2023-11-26T02:01:42.900Z,12.35
2023-11-26T02:06:46.630Z,7.47
2023-11-26T02:11:50.065Z,10.93
2023-11-26T02:16:55.246Z,11.73
2023-11-26T02:21:58.938Z,23.60
2023-11-26T02:27:03.281Z,12.52
2023-11-26T02:32:07.994Z,11.38
2023-11-26T02:37:11.644Z,10.93
2023-11-26T02:42:16.218Z,14.30
2023-11-26T02:47:19.408Z,13.85
2023-11-26T02:52:22.431Z,9.07
2023-11-26T02:57:26.736Z,16.40
2023-11-26T03:02:36.243Z,13.88
2023-11-26T03:07:39.219Z,12.40
2023-11-26T03:13:08.424Z,11.07
2023-11-26T03:18:14.060Z,19.38
2023-11-26T03:23:17.352Z,14.20
2023-11-26T03:28:22.024Z,11.98
2023-11-26T03:33:26.309Z,16.80
2023-11-26T03:38:29.599Z,15.98
2023-11-26T03:43:34.773Z,20.77
2023-11-26T03:48:40.532Z,23.95
2023-11-26T03:53:44.029Z,21.48
2023-11-26T03:58:48.303Z,22.02
2023-11-26T04:03:51.248Z,32.72
2023-11-26T04:08:55.224Z,33.75
2023-11-26T04:14:00.440Z,32.75
2023-11-26T04:19:03.861Z,30.05
2023-11-26T04:24:08.829Z,31.40
2023-11-26T04:29:13.160Z,26.75
2023-11-26T04:34:17.078Z,29.45
2023-11-26T04:39:20.372Z,37.55
2023-11-26T04:44:24.669Z,34.83
2023-11-26T04:49:27.920Z,31.55
2023-11-26T04:54:32.388Z,41.88
2023-11-26T04:59:37.547Z,37.35
2023-11-26T05:04:41.364Z,33.25
2023-11-26T05:09:44.517Z,50.05
2023-11-26T05:14:48.776Z,46.22
2023-11-26T05:19:51.757Z,45.55
2023-11-26T05:24:54.692Z,37.17
2023-11-26T05:29:59.502Z,43.90
2023-11-26T05:35:09.859Z,30.08
2023-11-26T05:40:16.344Z,31.73
2023-11-26T05:45:20.621Z,39.35
2023-11-26T05:50:24.185Z,43.38
2023-11-26T05:55:27.081Z,36.22
2023-11-26T06:00:32.189Z,46.47
2023-11-26T06:05:35.911Z,46.60
2023-11-26T06:10:38.850Z,42.28
2023-11-26T06:15:43.603Z,36.97
2023-11-26T06:20:46.537Z,41.33
2023-11-26T06:25:49.428Z,44.45
2023-11-26T06:30:54.034Z,41.08
2023-11-26T06:35:57.430Z,33.67
2023-11-26T06:41:01.313Z,38.53
2023-11-26T06:46:06.673Z,33.50
2023-11-26T06:51:11.709Z,34.67
2023-11-26T06:56:15.022Z,36.65
2023-11-26T07:01:19.343Z,25.48
2023-11-26T07:06:22.683Z,30.08
2023-11-26T07:11:25.946Z,26.98
2023-11-26T07:16:32.008Z,29.40
2023-11-26T07:21:41.609Z,22.63
2023-11-26T07:26:44.526Z,24.75
2023-11-26T07:31:49.701Z,27.05
2023-11-26T07:36:53.332Z,15.98
2023-11-26T07:41:57.139Z,31.88
2023-11-26T07:47:03.616Z,18.27
2023-11-26T07:52:07.116Z,23.50
2023-11-26T07:57:10.277Z,37.58
2023-11-26T08:02:14.845Z,25.55
2023-11-26T08:07:19.313Z,22.05
2023-11-26T08:12:24.544Z,33.85
2023-11-26T08:17:30.702Z,29.90
2023-11-26T08:22:35.992Z,16.87
2023-11-26T08:27:39.081Z,24.08
2023-11-26T08:32:46.059Z,21.73
2023-11-26T08:37:49.377Z,25.60
2023-11-26T08:42:55.099Z,22.70
2023-11-26T08:48:00.109Z,9.88
2023-11-26T08:53:07.111Z,8.15
2023-11-26T08:58:10.335Z,7.55
2023-11-26T09:03:14.876Z,4.32
2023-11-26T09:08:18.563Z,8.35
2023-11-26T09:13:21.463Z,15.38
2023-11-26T09:18:27.015Z,9.77
2023-11-26T09:23:31.103Z,12.57
2023-11-26T09:28:35.391Z,12.82
2023-11-26T09:33:40.367Z,16.20
2023-11-26T09:38:43.378Z,16.73
2023-11-26T09:43:46.628Z,12.88
2023-11-26T09:48:53.350Z,11.00
2023-11-26T09:59:00.225Z,15.13
2023-11-26T10:04:06.200Z,13.02
2023-11-26T10:09:18.664Z,18.47
2023-11-26T10:14:23.831Z,11.73
2023-11-26T10:19:29.192Z,18.60
2023-11-26T10:24:32.668Z,9.20
2023-11-26T10:29:44.192Z,9.63
2023-11-26T10:34:57.271Z,11.15
2023-11-26T10:40:00.903Z,10.10
2023-11-26T10:45:06.329Z,13.73
2023-11-26T10:50:13.043Z,11.18
2023-11-26T10:55:20.559Z,16.50
2023-11-26T11:00:26.544Z,17.85
2023-11-26T11:05:35.587Z,7.90
2023-11-26T11:10:49.285Z,14.30
2023-11-26T11:15:53.020Z,13.82
2023-11-26T11:21:06.379Z,20.23
2023-11-26T11:26:12.762Z,11.30
2023-11-26T11:31:16.747Z,14.65
2023-11-26T11:36:51.561Z,20.52
2023-11-26T11:42:10.968Z,25.88
2023-11-26T11:47:35.564Z,16.10
2023-11-26T11:52:41.544Z,13.05
2023-11-26T11:57:46.688Z,22.40
2023-11-26T12:02:51.213Z,8.60
2023-11-26T12:07:57.665Z,20.83
2023-11-26T12:13:02.416Z,22.47
2023-11-26T12:18:05.703Z,18.45
2023-11-26T12:23:10.263Z,17.67
2023-11-26T12:28:14.355Z,28.92
2023-11-26T12:33:18.322Z,26.88
2023-11-26T12:38:27.014Z,23.10
2023-11-26T12:43:45.747Z,19.85
2023-11-26T12:48:51.184Z,23.08
2023-11-26T12:53:56.187Z,19.35
2023-11-26T12:59:01.741Z,23.02
2023-11-26T13:04:06.314Z,12.27
2023-11-26T13:09:10.771Z,20.45
2023-11-26T13:14:21.657Z,13.95
2023-11-26T13:19:25.137Z,16.38
2023-11-26T13:24:28.425Z,14.25
2023-11-26T13:29:34.891Z,15.95
2023-11-26T13:34:38.358Z,18.30
2023-11-26T13:39:44.285Z,21.98
2023-11-26T13:44:48.976Z,23.05
2023-11-26T13:49:52.544Z,17.30
2023-11-26T13:54:56.097Z,19.33
2023-11-26T14:00:01.493Z,16.92
2023-11-26T14:05:11.450Z,25.20
2023-11-26T14:10:17.861Z,13.07
2023-11-26T14:15:22.884Z,14.63
2023-11-26T14:20:26.626Z,13.65
2023-11-26T14:25:30.306Z,16.20
2023-11-26T14:30:36.343Z,7.95
2023-11-26T14:35:40.044Z,17.00
2023-11-26T14:40:43.451Z,12.07
2023-11-26T14:45:48.152Z,10.95
2023-11-26T14:50:51.852Z,11.77
2023-11-26T14:55:55.748Z,11.20
2023-11-26T15:01:01.533Z,11.10
2023-11-26T15:06:05.721Z,14.68
2023-11-26T15:11:09.204Z,13.88
2023-11-26T15:16:14.213Z,10.25
2023-11-26T15:21:18.961Z,14.35
2023-11-26T15:26:23.360Z,7.70
2023-11-26T15:31:29.192Z,14.15
2023-11-26T15:36:32.815Z,15.30
2023-11-26T15:41:37.174Z,12.23
2023-11-26T15:46:42.052Z,15.50
2023-11-26T15:51:47.074Z,8.80
2023-11-26T15:56:53.972Z,10.30
2023-11-26T16:07:08.846Z,22.80
2023-11-26T16:17:27.158Z,10.45
2023-11-26T16:22:37.446Z,9.15
2023-11-26T16:27:40.707Z,9.75
2023-11-26T16:32:46.570Z,13.35
2023-11-26T16:37:50.178Z,10.70
2023-11-26T16:42:53.426Z,16.13
2023-11-26T16:47:58.371Z,5.72
2023-11-26T16:53:01.684Z,6.80
2023-11-26T16:58:05.023Z,12.48
2023-11-26T17:03:10.824Z,10.38
2023-11-26T17:08:14.131Z,8.60
2023-11-26T17:13:18.611Z,6.50
2023-11-26T17:18:24.652Z,28.23
2023-11-26T17:23:28.704Z,15.57
2023-11-26T17:28:33.643Z,9.93
2023-11-26T17:33:39.310Z,11.68
2023-11-26T17:38:42.977Z,6.28
2023-11-26T17:43:47.347Z,11.90
2023-11-26T17:48:53.169Z,20.05
2023-11-26T17:53:57.135Z,15.07
2023-11-26T17:59:01.927Z,9.20
2023-11-26T18:04:08.457Z,10.38
2023-11-26T18:09:12.672Z,7.38
2023-11-26T18:14:16.792Z,6.25
2023-11-26T18:19:23.755Z,6.53
2023-11-26T18:24:28.478Z,4.75
2023-11-26T18:29:31.784Z,13.00
2023-11-26T18:34:37.082Z,12.07
2023-11-26T18:39:41.855Z,6.75
2023-11-26T18:44:45.332Z,6.63
2023-11-26T18:49:50.191Z,7.18
2023-11-26T18:54:54.361Z,15.60
2023-11-26T18:59:58.152Z,10.40
2023-11-26T19:05:02.824Z,14.82
2023-11-26T19:10:08.520Z,6.00
2023-11-26T19:15:13.018Z,9.38
2023-11-26T19:20:18.047Z,7.30
2023-11-26T19:25:21.550Z,14.02
2023-11-26T19:30:24.614Z,8.80
2023-11-26T19:35:30.037Z,10.93
2023-11-26T19:40:34.375Z,8.75
2023-11-26T19:45:38.581Z,12.80
2023-11-26T19:50:43.782Z,16.33
2023-11-26T19:55:47.297Z,18.08
2023-11-26T20:00:51.180Z,18.27
2023-11-26T20:05:55.711Z,17.63
2023-11-26T20:10:59.229Z,14.35
2023-11-26T20:16:02.612Z,17.05
2023-11-26T20:21:09.253Z,28.23
2023-11-26T20:26:19.848Z,16.58
2023-11-26T20:31:24.056Z,18.45
2023-11-26T20:36:29.669Z,29.80
2023-11-26T20:41:33.203Z,17.35
2023-11-26T20:46:37.095Z,34.28
2023-11-26T20:51:42.745Z,18.20
2023-11-26T20:56:46.366Z,24.70
2023-11-26T21:01:49.790Z,29.20
2023-11-26T21:06:55.140Z,39.33
2023-11-26T21:11:58.596Z,20.17
2023-11-26T21:17:01.981Z,22.83
2023-11-26T21:22:06.796Z,33.22
2023-11-26T21:27:10.462Z,27.50
2023-11-26T21:32:14.897Z,18.83
2023-11-26T21:37:19.692Z,15.45
2023-11-26T21:42:22.650Z,15.80
2023-11-26T21:47:25.774Z,19.98
2023-11-26T21:52:30.135Z,26.92
2023-11-26T21:57:33.072Z,21.10
2023-11-26T22:02:36.178Z,30.77
2023-11-26T22:07:40.676Z,20.88
2023-11-26T22:12:43.612Z,27.05
2023-11-26T22:17:46.571Z,10.85
2023-11-26T22:22:51.084Z,16.88
2023-11-26T22:27:54.017Z,21.83
2023-11-26T22:32:57.049Z,24.23
2023-11-26T22:38:01.326Z,13.50
2023-11-26T22:43:04.287Z,12.05
2023-11-26T22:48:07.754Z,12.32
2023-11-26T22:53:12.947Z,13.75
2023-11-26T22:58:16.082Z,12.75
2023-11-26T23:03:19.170Z,19.60
2023-11-26T23:08:23.797Z,20.67
2023-11-26T23:13:28.936Z,10.88
2023-11-26T23:18:35.329Z,12.65
2023-11-26T23:23:49.137Z,14.15
2023-11-26T23:28:55.277Z,24.40
2023-11-26T23:33:58.326Z,15.20
2023-11-26T23:39:04.536Z,17.80
2023-11-26T23:44:08.471Z,14.18
2023-11-26T23:49:11.597Z,11.40
2023-11-26T23:54:16.906Z,22.15
2023-11-26T23:59:19.795Z,14.85
